sensor_id;sensor_type;location;lat;lon;timestamp;P1;durP1;ratioP1;P2;durP2;ratioP2
60700;SDS011;46541;49.894;10.886;2022-07-30T00:00:11;9.63;;;7.90;;
60700;SDS011;46541;49.894;10.886;2022-07-30T00:02:50;8.80;;;7.40;;
60700;SDS011;46541;49.894;10.886;2022-07-30T00:05:17;11.73;;;7.35;;
60700;SDS011;46541;49.894;10.886;2022-07-30T00:07:44;8.70;;;7.28;;
60700;SDS011;46541;49.894;10.886;2022-07-30T00:10:10;8.15;;;6.75;;
60700;SDS011;46541;49.894;10.886;2022-07-30T00:12:37;8.50;;;7.00;;
60700;SDS011;46541;49.894;10.886;2022-07-30T00:15:04;9.18;;;7.00;;
60700;SDS011;46541;49.894;10.886;2022-07-30T00:17:32;10.80;;;7.30;;
60700;SDS011;46541;49.894;10.886;2022-07-30T00:19:58;7.43;;;6.60;;
60700;SDS011;46541;49.894;10.886;2022-07-30T00:22:28;9.85;;;6.50;;
60700;SDS011;46541;49.894;10.886;2022-07-30T00:24:56;8.70;;;6.80;;
60700;SDS011;46541;49.894;10.886;2022-07-30T00:27:22;11.07;;;6.55;;
60700;SDS011;46541;49.894;10.886;2022-07-30T00:29:49;7.50;;;5.97;;
60700;SDS011;46541;49.894;10.886;2022-07-30T00:32:16;6.60;;;5.78;;
60700;SDS011;46541;49.894;10.886;2022-07-30T00:34:43;10.55;;;8.32;;
60700;SDS011;46541;49.894;10.886;2022-07-30T00:37:09;11.35;;;9.38;;
60700;SDS011;46541;49.894;10.886;2022-07-30T00:39:36;12.43;;;9.88;;
60700;SDS011;46541;49.894;10.886;2022-07-30T00:42:03;13.27;;;9.85;;
60700;SDS011;46541;49.894;10.886;2022-07-30T00:44:30;14.15;;;10.70;;
60700;SDS011;46541;49.894;10.886;2022-07-30T00:46:57;13.38;;;10.77;;
60700;SDS011;46541;49.894;10.886;2022-07-30T00:49:25;12.57;;;10.77;;
60700;SDS011;46541;49.894;10.886;2022-07-30T00:51:52;13.77;;;11.23;;
60700;SDS011;46541;49.894;10.886;2022-07-30T00:54:19;16.30;;;11.30;;
60700;SDS011;46541;49.894;10.886;2022-07-30T00:56:46;14.18;;;12.68;;
60700;SDS011;46541;49.894;10.886;2022-07-30T00:59:14;14.93;;;12.57;;
60700;SDS011;46541;49.894;10.886;2022-07-30T01:01:40;15.45;;;12.70;;
60700;SDS011;46541;49.894;10.886;2022-07-30T01:04:07;17.13;;;12.20;;
60700;SDS011;46541;49.894;10.886;2022-07-30T01:06:37;13.30;;;11.90;;
60700;SDS011;46541;49.894;10.886;2022-07-30T01:09:05;12.85;;;9.98;;
60700;SDS011;46541;49.894;10.886;2022-07-30T01:11:35;10.73;;;9.48;;
60700;SDS011;46541;49.894;10.886;2022-07-30T01:14:03;12.48;;;9.02;;
60700;SDS011;46541;49.894;10.886;2022-07-30T01:16:32;10.75;;;8.52;;
60700;SDS011;46541;49.894;10.886;2022-07-30T01:19:05;9.73;;;8.20;;
60700;SDS011;46541;49.894;10.886;2022-07-30T01:28:02;10.48;;;9.50;;
60700;SDS011;46541;49.894;10.886;2022-07-30T01:30:33;11.02;;;9.90;;
60700;SDS011;46541;49.894;10.886;2022-07-30T01:33:02;10.98;;;9.27;;
60700;SDS011;46541;49.894;10.886;2022-07-30T01:35:31;10.10;;;9.10;;
60700;SDS011;46541;49.894;10.886;2022-07-30T01:37:59;9.35;;;8.25;;
60700;SDS011;46541;49.894;10.886;2022-07-30T01:40:29;14.02;;;8.77;;
60700;SDS011;46541;49.894;10.886;2022-07-30T01:42:57;9.65;;;8.68;;
60700;SDS011;46541;49.894;10.886;2022-07-30T01:45:27;15.35;;;8.95;;
60700;SDS011;46541;49.894;10.886;2022-07-30T01:47:58;12.45;;;9.45;;
60700;SDS011;46541;49.894;10.886;2022-07-30T01:50:27;12.82;;;8.60;;
60700;SDS011;46541;49.894;10.886;2022-07-30T01:52:56;17.45;;;9.65;;
60700;SDS011;46541;49.894;10.886;2022-07-30T01:55:27;12.40;;;9.50;;
60700;SDS011;46541;49.894;10.886;2022-07-30T01:57:57;13.70;;;10.75;;
60700;SDS011;46541;49.894;10.886;2022-07-30T02:00:27;11.48;;;10.32;;
60700;SDS011;46541;49.894;10.886;2022-07-30T02:02:56;13.95;;;11.18;;
60700;SDS011;46541;49.894;10.886;2022-07-30T02:05:24;12.98;;;11.02;;
60700;SDS011;46541;49.894;10.886;2022-07-30T02:13:30;13.80;;;11.90;;
60700;SDS011;46541;49.894;10.886;2022-07-30T02:16:10;13.52;;;10.85;;
60700;SDS011;46541;49.894;10.886;2022-07-30T02:18:55;13.77;;;11.20;;
60700;SDS011;46541;49.894;10.886;2022-07-30T02:21:33;11.35;;;10.18;;
60700;SDS011;46541;49.894;10.886;2022-07-30T02:24:04;14.13;;;10.82;;
60700;SDS011;46541;49.894;10.886;2022-07-30T02:26:33;13.43;;;11.63;;
60700;SDS011;46541;49.894;10.886;2022-07-30T02:29:03;12.85;;;11.40;;
60700;SDS011;46541;49.894;10.886;2022-07-30T02:31:36;12.25;;;11.05;;
60700;SDS011;46541;49.894;10.886;2022-07-30T02:34:05;14.20;;;12.75;;
60700;SDS011;46541;49.894;10.886;2022-07-30T02:36:35;14.68;;;13.00;;
60700;SDS011;46541;49.894;10.886;2022-07-30T02:39:03;13.73;;;11.98;;
60700;SDS011;46541;49.894;10.886;2022-07-30T02:41:30;18.90;;;12.57;;
60700;SDS011;46541;49.894;10.886;2022-07-30T02:44:01;15.35;;;11.60;;
60700;SDS011;46541;49.894;10.886;2022-07-30T02:46:29;14.65;;;11.48;;
60700;SDS011;46541;49.894;10.886;2022-07-30T02:48:57;14.15;;;11.45;;
60700;SDS011;46541;49.894;10.886;2022-07-30T02:51:25;13.35;;;11.85;;
60700;SDS011;46541;49.894;10.886;2022-07-30T02:53:53;16.63;;;14.25;;
60700;SDS011;46541;49.894;10.886;2022-07-30T02:56:21;17.65;;;15.32;;
60700;SDS011;46541;49.894;10.886;2022-07-30T02:58:49;19.13;;;16.13;;
60700;SDS011;46541;49.894;10.886;2022-07-30T03:01:17;20.45;;;16.05;;
60700;SDS011;46541;49.894;10.886;2022-07-30T03:03:46;17.27;;;14.90;;
60700;SDS011;46541;49.894;10.886;2022-07-30T03:06:14;17.33;;;14.45;;
60700;SDS011;46541;49.894;10.886;2022-07-30T03:08:41;19.92;;;15.23;;
60700;SDS011;46541;49.894;10.886;2022-07-30T03:11:10;19.55;;;16.45;;
60700;SDS011;46541;49.894;10.886;2022-07-30T03:13:38;21.92;;;16.88;;
60700;SDS011;46541;49.894;10.886;2022-07-30T03:16:06;19.63;;;16.77;;
60700;SDS011;46541;49.894;10.886;2022-07-30T03:18:35;22.50;;;16.15;;
60700;SDS011;46541;49.894;10.886;2022-07-30T03:21:04;19.17;;;16.13;;
60700;SDS011;46541;49.894;10.886;2022-07-30T03:23:33;19.60;;;16.83;;
60700;SDS011;46541;49.894;10.886;2022-07-30T03:26:03;21.38;;;17.10;;
60700;SDS011;46541;49.894;10.886;2022-07-30T03:28:35;21.30;;;17.48;;
60700;SDS011;46541;49.894;10.886;2022-07-30T03:31:05;22.08;;;18.98;;
60700;SDS011;46541;49.894;10.886;2022-07-30T03:33:33;21.45;;;18.77;;
60700;SDS011;46541;49.894;10.886;2022-07-30T03:36:03;22.98;;;18.60;;
60700;SDS011;46541;49.894;10.886;2022-07-30T03:38:31;22.38;;;18.10;;
60700;SDS011;46541;49.894;10.886;2022-07-30T03:40:58;20.00;;;16.98;;
60700;SDS011;46541;49.894;10.886;2022-07-30T03:43:25;14.70;;;11.57;;
60700;SDS011;46541;49.894;10.886;2022-07-30T03:45:59;12.35;;;8.48;;
60700;SDS011;46541;49.894;10.886;2022-07-30T03:48:28;7.85;;;6.15;;
60700;SDS011;46541;49.894;10.886;2022-07-30T03:50:56;7.38;;;6.15;;
60700;SDS011;46541;49.894;10.886;2022-07-30T03:53:24;5.13;;;4.63;;
60700;SDS011;46541;49.894;10.886;2022-07-30T03:55:52;4.35;;;3.95;;
60700;SDS011;46541;49.894;10.886;2022-07-30T03:58:19;4.65;;;3.92;;
60700;SDS011;46541;49.894;10.886;2022-07-30T04:00:47;3.97;;;3.53;;
60700;SDS011;46541;49.894;10.886;2022-07-30T04:03:28;4.47;;;3.40;;
60700;SDS011;46541;49.894;10.886;2022-07-30T04:05:57;4.15;;;3.60;;
60700;SDS011;46541;49.894;10.886;2022-07-30T04:08:24;3.85;;;3.20;;
60700;SDS011;46541;49.894;10.886;2022-07-30T04:10:53;3.95;;;3.40;;
60700;SDS011;46541;49.894;10.886;2022-07-30T04:13:19;5.65;;;3.70;;
60700;SDS011;46541;49.894;10.886;2022-07-30T04:16:08;6.30;;;4.55;;
60700;SDS011;46541;49.894;10.886;2022-07-30T04:18:59;4.63;;;3.80;;
60700;SDS011;46541;49.894;10.886;2022-07-30T04:21:28;4.78;;;4.28;;
60700;SDS011;46541;49.894;10.886;2022-07-30T04:23:57;4.10;;;3.60;;
60700;SDS011;46541;49.894;10.886;2022-07-30T04:26:30;4.50;;;3.15;;
60700;SDS011;46541;49.894;10.886;2022-07-30T04:28:58;4.40;;;3.97;;
60700;SDS011;46541;49.894;10.886;2022-07-30T04:31:27;4.10;;;3.50;;
60700;SDS011;46541;49.894;10.886;2022-07-30T04:33:55;4.15;;;3.70;;
60700;SDS011;46541;49.894;10.886;2022-07-30T04:36:30;4.53;;;4.03;;
60700;SDS011;46541;49.894;10.886;2022-07-30T04:38:58;7.93;;;6.05;;
60700;SDS011;46541;49.894;10.886;2022-07-30T04:41:25;6.28;;;4.63;;
60700;SDS011;46541;49.894;10.886;2022-07-30T04:43:52;6.43;;;4.70;;
60700;SDS011;46541;49.894;10.886;2022-07-30T04:46:19;6.05;;;4.00;;
60700;SDS011;46541;49.894;10.886;2022-07-30T04:48:49;6.32;;;4.78;;
60700;SDS011;46541;49.894;10.886;2022-07-30T04:51:27;5.55;;;4.60;;
60700;SDS011;46541;49.894;10.886;2022-07-30T04:53:57;7.80;;;5.43;;
60700;SDS011;46541;49.894;10.886;2022-07-30T04:56:25;7.28;;;5.53;;
60700;SDS011;46541;49.894;10.886;2022-07-30T04:58:55;10.98;;;6.45;;
60700;SDS011;46541;49.894;10.886;2022-07-30T05:01:23;7.47;;;6.72;;
60700;SDS011;46541;49.894;10.886;2022-07-30T05:04:05;7.07;;;5.85;;
60700;SDS011;46541;49.894;10.886;2022-07-30T05:06:35;7.47;;;5.88;;
60700;SDS011;46541;49.894;10.886;2022-07-30T05:09:03;5.93;;;5.30;;
60700;SDS011;46541;49.894;10.886;2022-07-30T05:11:30;5.50;;;4.28;;
60700;SDS011;46541;49.894;10.886;2022-07-30T05:13:57;6.47;;;4.30;;
60700;SDS011;46541;49.894;10.886;2022-07-30T05:16:23;4.93;;;4.43;;
60700;SDS011;46541;49.894;10.886;2022-07-30T05:18:50;4.25;;;3.85;;
60700;SDS011;46541;49.894;10.886;2022-07-30T05:21:18;4.60;;;3.63;;
60700;SDS011;46541;49.894;10.886;2022-07-30T05:23:45;6.50;;;3.92;;
60700;SDS011;46541;49.894;10.886;2022-07-30T05:26:19;5.18;;;3.80;;
60700;SDS011;46541;49.894;10.886;2022-07-30T05:28:46;7.55;;;3.90;;
60700;SDS011;46541;49.894;10.886;2022-07-30T05:31:20;4.88;;;3.88;;
60700;SDS011;46541;49.894;10.886;2022-07-30T05:33:47;6.95;;;4.70;;
60700;SDS011;46541;49.894;10.886;2022-07-30T05:36:14;4.65;;;3.88;;
60700;SDS011;46541;49.894;10.886;2022-07-30T05:38:41;5.68;;;3.60;;
60700;SDS011;46541;49.894;10.886;2022-07-30T05:41:08;4.78;;;4.32;;
60700;SDS011;46541;49.894;10.886;2022-07-30T05:43:54;4.72;;;3.33;;
60700;SDS011;46541;49.894;10.886;2022-07-30T05:46:22;4.35;;;3.67;;
60700;SDS011;46541;49.894;10.886;2022-07-30T05:48:49;3.42;;;3.13;;
60700;SDS011;46541;49.894;10.886;2022-07-30T05:51:16;6.05;;;3.47;;
60700;SDS011;46541;49.894;10.886;2022-07-30T05:53:45;4.22;;;3.80;;
60700;SDS011;46541;49.894;10.886;2022-07-30T05:56:12;5.35;;;4.45;;
60700;SDS011;46541;49.894;10.886;2022-07-30T05:58:38;4.40;;;4.00;;
60700;SDS011;46541;49.894;10.886;2022-07-30T06:01:05;4.78;;;4.22;;
60700;SDS011;46541;49.894;10.886;2022-07-30T06:03:32;4.07;;;3.75;;
60700;SDS011;46541;49.894;10.886;2022-07-30T06:06:01;5.35;;;4.13;;
60700;SDS011;46541;49.894;10.886;2022-07-30T06:08:29;4.90;;;4.22;;
60700;SDS011;46541;49.894;10.886;2022-07-30T06:10:56;4.15;;;3.75;;
60700;SDS011;46541;49.894;10.886;2022-07-30T06:13:23;7.20;;;4.00;;
60700;SDS011;46541;49.894;10.886;2022-07-30T06:15:50;6.13;;;4.30;;
60700;SDS011;46541;49.894;10.886;2022-07-30T06:18:17;5.57;;;3.75;;
60700;SDS011;46541;49.894;10.886;2022-07-30T06:20:44;4.30;;;3.90;;
60700;SDS011;46541;49.894;10.886;2022-07-30T06:23:11;4.47;;;3.60;;
60700;SDS011;46541;49.894;10.886;2022-07-30T06:25:38;4.55;;;4.15;;
60700;SDS011;46541;49.894;10.886;2022-07-30T06:28:05;5.50;;;3.53;;
60700;SDS011;46541;49.894;10.886;2022-07-30T06:30:52;5.00;;;3.38;;
60700;SDS011;46541;49.894;10.886;2022-07-30T06:33:19;4.10;;;3.80;;
60700;SDS011;46541;49.894;10.886;2022-07-30T06:35:46;3.50;;;3.20;;
60700;SDS011;46541;49.894;10.886;2022-07-30T06:38:14;5.30;;;3.85;;
60700;SDS011;46541;49.894;10.886;2022-07-30T06:40:41;3.92;;;3.63;;
60700;SDS011;46541;49.894;10.886;2022-07-30T06:43:08;4.00;;;3.60;;
60700;SDS011;46541;49.894;10.886;2022-07-30T06:45:34;4.00;;;3.60;;
60700;SDS011;46541;49.894;10.886;2022-07-30T06:48:01;6.22;;;4.10;;
60700;SDS011;46541;49.894;10.886;2022-07-30T06:50:28;4.30;;;3.90;;
60700;SDS011;46541;49.894;10.886;2022-07-30T06:52:55;4.10;;;3.80;;
60700;SDS011;46541;49.894;10.886;2022-07-30T06:55:22;4.55;;;3.72;;
60700;SDS011;46541;49.894;10.886;2022-07-30T06:57:49;4.07;;;3.60;;
60700;SDS011;46541;49.894;10.886;2022-07-30T07:00:15;4.35;;;3.70;;
60700;SDS011;46541;49.894;10.886;2022-07-30T07:02:42;4.22;;;3.70;;
60700;SDS011;46541;49.894;10.886;2022-07-30T07:05:09;4.95;;;3.65;;
60700;SDS011;46541;49.894;10.886;2022-07-30T07:07:36;4.13;;;3.72;;
60700;SDS011;46541;49.894;10.886;2022-07-30T07:10:11;3.97;;;3.58;;
60700;SDS011;46541;49.894;10.886;2022-07-30T07:12:38;5.95;;;3.78;;
60700;SDS011;46541;49.894;10.886;2022-07-30T07:15:05;4.40;;;4.00;;
60700;SDS011;46541;49.894;10.886;2022-07-30T07:17:32;4.88;;;3.03;;
60700;SDS011;46541;49.894;10.886;2022-07-30T07:20:00;5.05;;;4.55;;
60700;SDS011;46541;49.894;10.886;2022-07-30T07:22:28;4.80;;;3.72;;
60700;SDS011;46541;49.894;10.886;2022-07-30T07:24:55;5.15;;;3.38;;
60700;SDS011;46541;49.894;10.886;2022-07-30T07:27:22;3.45;;;3.15;;
60700;SDS011;46541;49.894;10.886;2022-07-30T07:29:49;12.32;;;9.82;;
60700;SDS011;46541;49.894;10.886;2022-07-30T07:32:31;3.65;;;3.35;;
60700;SDS011;46541;49.894;10.886;2022-07-30T07:34:59;3.83;;;3.53;;
60700;SDS011;46541;49.894;10.886;2022-07-30T07:37:26;4.43;;;3.50;;
60700;SDS011;46541;49.894;10.886;2022-07-30T07:39:53;3.95;;;3.65;;
60700;SDS011;46541;49.894;10.886;2022-07-30T07:42:20;4.10;;;3.22;;
60700;SDS011;46541;49.894;10.886;2022-07-30T07:44:47;4.25;;;3.13;;
60700;SDS011;46541;49.894;10.886;2022-07-30T07:47:14;4.30;;;3.85;;
60700;SDS011;46541;49.894;10.886;2022-07-30T07:49:41;4.03;;;3.63;;
60700;SDS011;46541;49.894;10.886;2022-07-30T07:52:07;3.80;;;3.47;;
60700;SDS011;46541;49.894;10.886;2022-07-30T07:54:34;4.07;;;3.70;;
60700;SDS011;46541;49.894;10.886;2022-07-30T07:57:03;3.42;;;3.13;;
60700;SDS011;46541;49.894;10.886;2022-07-30T07:59:35;4.13;;;3.38;;
60700;SDS011;46541;49.894;10.886;2022-07-30T08:02:06;6.57;;;3.72;;
60700;SDS011;46541;49.894;10.886;2022-07-30T08:04:34;4.30;;;3.90;;
60700;SDS011;46541;49.894;10.886;2022-07-30T08:07:01;6.10;;;3.78;;
60700;SDS011;46541;49.894;10.886;2022-07-30T08:09:28;3.83;;;3.42;;
60700;SDS011;46541;49.894;10.886;2022-07-30T08:12:12;5.65;;;3.88;;
60700;SDS011;46541;49.894;10.886;2022-07-30T08:14:39;4.15;;;3.78;;
60700;SDS011;46541;49.894;10.886;2022-07-30T08:17:06;3.78;;;3.47;;
60700;SDS011;46541;49.894;10.886;2022-07-30T08:19:34;4.68;;;3.70;;
60700;SDS011;46541;49.894;10.886;2022-07-30T08:22:01;6.45;;;3.95;;
60700;SDS011;46541;49.894;10.886;2022-07-30T08:24:27;6.28;;;4.32;;
60700;SDS011;46541;49.894;10.886;2022-07-30T08:26:54;4.40;;;3.80;;
60700;SDS011;46541;49.894;10.886;2022-07-30T08:29:21;4.22;;;3.83;;
60700;SDS011;46541;49.894;10.886;2022-07-30T08:31:48;4.40;;;4.00;;
60700;SDS011;46541;49.894;10.886;2022-07-30T08:34:14;3.40;;;3.10;;
60700;SDS011;46541;49.894;10.886;2022-07-30T08:36:42;5.07;;;4.65;;
60700;SDS011;46541;49.894;10.886;2022-07-30T08:39:08;5.15;;;4.70;;
60700;SDS011;46541;49.894;10.886;2022-07-30T08:41:35;6.00;;;3.90;;
60700;SDS011;46541;49.894;10.886;2022-07-30T08:44:02;5.03;;;4.13;;
60700;SDS011;46541;49.894;10.886;2022-07-30T08:46:39;4.22;;;3.42;;
60700;SDS011;46541;49.894;10.886;2022-07-30T08:49:12;5.78;;;3.58;;
60700;SDS011;46541;49.894;10.886;2022-07-30T08:51:40;3.95;;;3.53;;
60700;SDS011;46541;49.894;10.886;2022-07-30T08:54:07;4.60;;;4.15;;
60700;SDS011;46541;49.894;10.886;2022-07-30T08:56:35;4.47;;;3.83;;
60700;SDS011;46541;49.894;10.886;2022-07-30T08:59:02;4.95;;;4.13;;
60700;SDS011;46541;49.894;10.886;2022-07-30T09:01:30;3.75;;;3.42;;
60700;SDS011;46541;49.894;10.886;2022-07-30T09:03:57;4.03;;;3.63;;
60700;SDS011;46541;49.894;10.886;2022-07-30T09:06:24;4.53;;;3.65;;
60700;SDS011;46541;49.894;10.886;2022-07-30T09:08:51;11.85;;;4.22;;
60700;SDS011;46541;49.894;10.886;2022-07-30T09:11:18;5.88;;;4.45;;
60700;SDS011;46541;49.894;10.886;2022-07-30T09:13:46;4.32;;;3.58;;
60700;SDS011;46541;49.894;10.886;2022-07-30T09:16:23;7.63;;;3.17;;
60700;SDS011;46541;49.894;10.886;2022-07-30T09:18:51;5.28;;;2.97;;
60700;SDS011;46541;49.894;10.886;2022-07-30T09:24:06;4.38;;;3.05;;
60700;SDS011;46541;49.894;10.886;2022-07-30T09:26:55;4.07;;;3.20;;
60700;SDS011;46541;49.894;10.886;2022-07-30T09:29:27;3.33;;;3.00;;
60700;SDS011;46541;49.894;10.886;2022-07-30T09:32:02;3.70;;;3.30;;
60700;SDS011;46541;49.894;10.886;2022-07-30T09:34:32;6.03;;;3.15;;
60700;SDS011;46541;49.894;10.886;2022-07-30T09:37:02;4.18;;;2.67;;
60700;SDS011;46541;49.894;10.886;2022-07-30T09:39:34;5.95;;;2.78;;
60700;SDS011;46541;49.894;10.886;2022-07-30T09:42:03;6.72;;;2.88;;
60700;SDS011;46541;49.894;10.886;2022-07-30T09:44:48;3.80;;;2.70;;
60700;SDS011;46541;49.894;10.886;2022-07-30T09:47:28;4.82;;;2.72;;
60700;SDS011;46541;49.894;10.886;2022-07-30T09:50:06;2.88;;;2.60;;
60700;SDS011;46541;49.894;10.886;2022-07-30T09:55:14;3.65;;;2.45;;
60700;SDS011;46541;49.894;10.886;2022-07-30T09:57:59;6.57;;;3.38;;
60700;SDS011;46541;49.894;10.886;2022-07-30T10:00:29;5.03;;;2.63;;
60700;SDS011;46541;49.894;10.886;2022-07-30T10:02:58;3.45;;;2.90;;
60700;SDS011;46541;49.894;10.886;2022-07-30T10:05:37;4.35;;;2.40;;
60700;SDS011;46541;49.894;10.886;2022-07-30T10:08:04;4.47;;;2.35;;
60700;SDS011;46541;49.894;10.886;2022-07-30T10:10:42;5.97;;;2.95;;
60700;SDS011;46541;49.894;10.886;2022-07-30T10:13:16;3.72;;;1.98;;
60700;SDS011;46541;49.894;10.886;2022-07-30T10:15:46;5.63;;;2.63;;
60700;SDS011;46541;49.894;10.886;2022-07-30T10:18:15;7.90;;;3.13;;
60700;SDS011;46541;49.894;10.886;2022-07-30T10:20:43;3.63;;;2.65;;
60700;SDS011;46541;49.894;10.886;2022-07-30T10:23:11;2.38;;;2.03;;
60700;SDS011;46541;49.894;10.886;2022-07-30T10:25:58;7.32;;;3.40;;
60700;SDS011;46541;49.894;10.886;2022-07-30T10:28:29;3.58;;;2.20;;
60700;SDS011;46541;49.894;10.886;2022-07-30T10:31:03;3.95;;;1.90;;
60700;SDS011;46541;49.894;10.886;2022-07-30T10:33:51;8.40;;;3.15;;
60700;SDS011;46541;49.894;10.886;2022-07-30T10:36:19;7.18;;;2.78;;
60700;SDS011;46541;49.894;10.886;2022-07-30T10:38:49;4.80;;;2.63;;
60700;SDS011;46541;49.894;10.886;2022-07-30T10:41:36;4.55;;;2.08;;
60700;SDS011;46541;49.894;10.886;2022-07-30T10:47:09;4.28;;;3.10;;
60700;SDS011;46541;49.894;10.886;2022-07-30T10:49:39;7.40;;;5.50;;
60700;SDS011;46541;49.894;10.886;2022-07-30T10:52:08;3.10;;;1.80;;
60700;SDS011;46541;49.894;10.886;2022-07-30T11:02:26;3.72;;;2.33;;
60700;SDS011;46541;49.894;10.886;2022-07-30T11:11:02;3.38;;;1.80;;
60700;SDS011;46541;49.894;10.886;2022-07-30T11:13:49;2.60;;;2.40;;
60700;SDS011;46541;49.894;10.886;2022-07-30T11:16:19;3.00;;;1.77;;
60700;SDS011;46541;49.894;10.886;2022-07-30T11:24:54;3.03;;;1.60;;
60700;SDS011;46541;49.894;10.886;2022-07-30T11:27:35;2.60;;;1.80;;
60700;SDS011;46541;49.894;10.886;2022-07-30T11:30:48;2.20;;;1.95;;
60700;SDS011;46541;49.894;10.886;2022-07-30T11:33:19;2.63;;;1.63;;
60700;SDS011;46541;49.894;10.886;2022-07-30T11:36:04;3.58;;;1.80;;
60700;SDS011;46541;49.894;10.886;2022-07-30T11:38:56;5.45;;;2.33;;
60700;SDS011;46541;49.894;10.886;2022-07-30T11:41:32;3.35;;;2.67;;
60700;SDS011;46541;49.894;10.886;2022-07-30T11:46:54;29.40;;;17.95;;
60700;SDS011;46541;49.894;10.886;2022-07-30T11:49:21;3.90;;;3.30;;
60700;SDS011;46541;49.894;10.886;2022-07-30T11:51:48;6.65;;;2.88;;
60700;SDS011;46541;49.894;10.886;2022-07-30T11:54:16;2.85;;;2.35;;
60700;SDS011;46541;49.894;10.886;2022-07-30T11:56:50;4.07;;;2.45;;
60700;SDS011;46541;49.894;10.886;2022-07-30T11:59:19;4.22;;;2.45;;
60700;SDS011;46541;49.894;10.886;2022-07-30T12:01:49;5.05;;;2.90;;
60700;SDS011;46541;49.894;10.886;2022-07-30T12:04:17;4.28;;;2.08;;
60700;SDS011;46541;49.894;10.886;2022-07-30T12:06:45;15.90;;;3.53;;
60700;SDS011;46541;49.894;10.886;2022-07-30T12:09:23;2.85;;;2.45;;
60700;SDS011;46541;49.894;10.886;2022-07-30T12:11:56;6.15;;;2.65;;
60700;SDS011;46541;49.894;10.886;2022-07-30T12:14:23;3.38;;;2.55;;
60700;SDS011;46541;49.894;10.886;2022-07-30T12:16:50;3.13;;;2.63;;
60700;SDS011;46541;49.894;10.886;2022-07-30T12:19:18;4.13;;;2.28;;
60700;SDS011;46541;49.894;10.886;2022-07-30T12:21:46;2.72;;;2.45;;
60700;SDS011;46541;49.894;10.886;2022-07-30T12:24:23;4.88;;;2.38;;
60700;SDS011;46541;49.894;10.886;2022-07-30T12:26:51;4.30;;;2.42;;
60700;SDS011;46541;49.894;10.886;2022-07-30T12:29:29;8.38;;;2.90;;
60700;SDS011;46541;49.894;10.886;2022-07-30T12:31:57;3.17;;;2.63;;
60700;SDS011;46541;49.894;10.886;2022-07-30T12:34:24;4.10;;;2.60;;
60700;SDS011;46541;49.894;10.886;2022-07-30T12:36:52;4.95;;;2.67;;
60700;SDS011;46541;49.894;10.886;2022-07-30T12:39:24;4.13;;;2.58;;
60700;SDS011;46541;49.894;10.886;2022-07-30T12:41:52;4.97;;;2.10;;
60700;SDS011;46541;49.894;10.886;2022-07-30T12:44:32;3.65;;;2.40;;
60700;SDS011;46541;49.894;10.886;2022-07-30T12:47:17;3.90;;;3.05;;
60700;SDS011;46541;49.894;10.886;2022-07-30T12:49:55;5.50;;;3.25;;
60700;SDS011;46541;49.894;10.886;2022-07-30T12:54:57;3.00;;;2.33;;
60700;SDS011;46541;49.894;10.886;2022-07-30T12:57:25;2.75;;;2.55;;
60700;SDS011;46541;49.894;10.886;2022-07-30T12:59:59;4.00;;;2.97;;
60700;SDS011;46541;49.894;10.886;2022-07-30T13:02:32;5.57;;;3.03;;
60700;SDS011;46541;49.894;10.886;2022-07-30T13:05:00;5.13;;;2.92;;
60700;SDS011;46541;49.894;10.886;2022-07-30T13:08:19;2.92;;;2.60;;
60700;SDS011;46541;49.894;10.886;2022-07-30T13:10:26;4.13;;;3.20;;
60700;SDS011;46541;49.894;10.886;2022-07-30T13:12:56;5.20;;;2.70;;
60700;SDS011;46541;49.894;10.886;2022-07-30T13:15:24;3.80;;;2.85;;
60700;SDS011;46541;49.894;10.886;2022-07-30T13:17:51;4.82;;;2.78;;
60700;SDS011;46541;49.894;10.886;2022-07-30T13:20:18;3.95;;;2.85;;
60700;SDS011;46541;49.894;10.886;2022-07-30T13:22:45;5.53;;;2.10;;
60700;SDS011;46541;49.894;10.886;2022-07-30T13:25:12;4.20;;;2.42;;
60700;SDS011;46541;49.894;10.886;2022-07-30T13:27:39;3.53;;;2.85;;
60700;SDS011;46541;49.894;10.886;2022-07-30T13:30:06;4.88;;;2.30;;
60700;SDS011;46541;49.894;10.886;2022-07-30T13:32:33;3.60;;;2.70;;
60700;SDS011;46541;49.894;10.886;2022-07-30T13:35:00;8.93;;;3.45;;
60700;SDS011;46541;49.894;10.886;2022-07-30T13:37:28;6.07;;;3.42;;
60700;SDS011;46541;49.894;10.886;2022-07-30T13:40:03;5.95;;;3.72;;
60700;SDS011;46541;49.894;10.886;2022-07-30T13:42:31;9.82;;;4.53;;
60700;SDS011;46541;49.894;10.886;2022-07-30T13:44:58;7.20;;;3.35;;
60700;SDS011;46541;49.894;10.886;2022-07-30T13:47:25;4.15;;;2.83;;
60700;SDS011;46541;49.894;10.886;2022-07-30T13:49:51;5.25;;;3.10;;
60700;SDS011;46541;49.894;10.886;2022-07-30T13:52:18;5.05;;;2.85;;
60700;SDS011;46541;49.894;10.886;2022-07-30T13:54:45;5.95;;;3.20;;
60700;SDS011;46541;49.894;10.886;2022-07-30T13:57:12;3.65;;;2.72;;
60700;SDS011;46541;49.894;10.886;2022-07-30T13:59:38;5.95;;;2.95;;
60700;SDS011;46541;49.894;10.886;2022-07-30T14:02:05;5.53;;;3.00;;
60700;SDS011;46541;49.894;10.886;2022-07-30T14:04:32;3.55;;;2.08;;
60700;SDS011;46541;49.894;10.886;2022-07-30T14:06:59;3.90;;;2.38;;
60700;SDS011;46541;49.894;10.886;2022-07-30T14:09:26;6.55;;;2.83;;
60700;SDS011;46541;49.894;10.886;2022-07-30T14:11:53;6.15;;;3.40;;
60700;SDS011;46541;49.894;10.886;2022-07-30T14:14:20;8.65;;;3.40;;
60700;SDS011;46541;49.894;10.886;2022-07-30T14:16:48;5.10;;;3.00;;
60700;SDS011;46541;49.894;10.886;2022-07-30T14:19:19;5.35;;;3.15;;
60700;SDS011;46541;49.894;10.886;2022-07-30T14:21:49;8.68;;;4.10;;
60700;SDS011;46541;49.894;10.886;2022-07-30T14:24:17;7.70;;;3.20;;
60700;SDS011;46541;49.894;10.886;2022-07-30T14:26:45;7.00;;;3.00;;
60700;SDS011;46541;49.894;10.886;2022-07-30T14:29:11;16.45;;;3.65;;
60700;SDS011;46541;49.894;10.886;2022-07-30T14:31:38;8.30;;;3.13;;
60700;SDS011;46541;49.894;10.886;2022-07-30T14:34:05;5.68;;;3.55;;
60700;SDS011;46541;49.894;10.886;2022-07-30T14:36:32;7.93;;;3.63;;
60700;SDS011;46541;49.894;10.886;2022-07-30T14:38:59;4.78;;;3.08;;
60700;SDS011;46541;49.894;10.886;2022-07-30T14:41:30;4.78;;;3.00;;
60700;SDS011;46541;49.894;10.886;2022-07-30T14:43:57;11.95;;;3.25;;
60700;SDS011;46541;49.894;10.886;2022-07-30T14:46:24;55.53;;;8.38;;
60700;SDS011;46541;49.894;10.886;2022-07-30T14:48:50;8.15;;;4.95;;
60700;SDS011;46541;49.894;10.886;2022-07-30T14:51:17;7.72;;;5.10;;
60700;SDS011;46541;49.894;10.886;2022-07-30T14:53:51;10.18;;;5.55;;
60700;SDS011;46541;49.894;10.886;2022-07-30T14:56:18;10.68;;;4.75;;
60700;SDS011;46541;49.894;10.886;2022-07-30T14:58:46;6.43;;;4.53;;
60700;SDS011;46541;49.894;10.886;2022-07-30T15:01:13;9.35;;;5.03;;
60700;SDS011;46541;49.894;10.886;2022-07-30T15:03:42;12.00;;;5.40;;
60700;SDS011;46541;49.894;10.886;2022-07-30T15:06:10;10.27;;;5.38;;
60700;SDS011;46541;49.894;10.886;2022-07-30T15:08:38;4.65;;;3.83;;
60700;SDS011;46541;49.894;10.886;2022-07-30T15:11:05;7.53;;;4.55;;
60700;SDS011;46541;49.894;10.886;2022-07-30T15:13:34;4.30;;;3.90;;
60700;SDS011;46541;49.894;10.886;2022-07-30T15:16:03;7.88;;;4.32;;
60700;SDS011;46541;49.894;10.886;2022-07-30T15:18:31;8.07;;;5.13;;
60700;SDS011;46541;49.894;10.886;2022-07-30T15:20:58;7.07;;;5.15;;
60700;SDS011;46541;49.894;10.886;2022-07-30T15:23:25;6.32;;;4.80;;
60700;SDS011;46541;49.894;10.886;2022-07-30T15:25:52;7.95;;;4.75;;
60700;SDS011;46541;49.894;10.886;2022-07-30T15:28:19;6.65;;;4.40;;